Atlantis, Florida
Current Conditions -  °F | °C
As of 9:53 PM on Friday 19 Dec 2014 (Local Time) from KPBI Reporting Station
Broken Clouds Broken Clouds  
Wind Chill: 72°   Ceiling: 4800
Heat Index: 72°   Visibility: 10mi
Dew Point: 61°   Wind: 8mph
Humidity: 68%   Direction: 110°ESE
Pressure: 30.07"   Gusts: NA
Location:  26.5758°N, 80.0835°W
Report Text: KPBI 200253Z 11007KT 10SM FEW032 SCT039 BKN048 22/16 A3007 RMK AO2 SLP183 T02220161 50007
Loading
Personal Weather Stations






























Interactive Weather Map New forecast layout! Learn more

10-Day Weather Forecast

Advertisements
Track Severe Weather on mobile